createdAt,value
2022-11-12T00:01:06.125Z,102249.34
2022-11-12T00:03:32.550Z,102250.22
2022-11-12T00:05:59.087Z,102247.59
2022-11-12T00:08:25.783Z,102260.19
2022-11-12T00:10:52.541Z,102260.44
2022-11-12T00:13:19.076Z,102256.00
2022-11-12T00:15:47.056Z,102259.44
2022-11-12T00:18:13.611Z,102264.13
2022-11-12T00:20:46.404Z,102256.97
2022-11-12T00:23:12.829Z,102258.72
2022-11-12T00:25:39.483Z,102253.16
2022-11-12T00:28:08.290Z,102258.34
2022-11-12T00:30:38.564Z,102266.75
2022-11-12T00:33:05.448Z,102268.59
2022-11-12T00:35:33.217Z,102267.38
2022-11-12T00:38:02.902Z,102268.69
2022-11-12T00:40:29.807Z,102259.22
2022-11-12T00:42:56.247Z,102251.19
2022-11-12T00:45:27.729Z,102260.91
2022-11-12T00:47:58.116Z,102257.47
2022-11-12T00:50:24.899Z,102260.28
2022-11-12T00:52:54.356Z,102265.47
2022-11-12T00:55:21.131Z,102258.97
2022-11-12T00:57:47.658Z,102256.34
2022-11-12T01:00:17.090Z,102258.09
2022-11-12T01:02:46.376Z,102248.09
2022-11-12T01:05:16.105Z,102256.34
2022-11-12T01:07:45.196Z,102260.81
2022-11-12T01:10:14.119Z,102265.47
2022-11-12T01:12:40.669Z,102260.19
2022-11-12T01:15:09.946Z,102258.19
2022-11-12T01:17:39.094Z,102269.94
2022-11-12T01:20:06.054Z,102268.09
2022-11-12T01:22:32.821Z,102261.69
2022-11-12T01:24:59.221Z,102256.97
2022-11-12T01:27:25.573Z,102254.16
2022-11-12T01:29:52.044Z,102254.00
2022-11-12T01:32:21.558Z,102252.06
2022-11-12T01:34:48.026Z,102245.66
2022-11-12T01:37:14.497Z,102242.16
2022-11-12T01:39:41.436Z,102243.91
2022-11-12T01:42:07.891Z,102238.59
2022-11-12T01:44:42.557Z,102238.47
2022-11-12T01:47:16.889Z,102238.47
2022-11-12T01:49:55.304Z,102239.19
2022-11-12T01:52:39.600Z,102249.34
2022-11-12T01:55:09.985Z,102245.50
2022-11-12T01:57:49.843Z,102245.66
2022-11-12T02:00:17.696Z,102248.34
2022-11-12T02:02:49.680Z,102238.34
2022-11-12T02:05:18.790Z,102241.56
2022-11-12T02:07:46.766Z,102242.06
2022-11-12T02:10:14.583Z,102245.22
2022-11-12T02:13:00.616Z,102241.16
2022-11-12T02:15:27.490Z,102234.88
2022-11-12T02:17:56.731Z,102222.44
2022-11-12T02:20:23.303Z,102217.00
2022-11-12T02:22:52.076Z,102218.59
2022-11-12T02:25:27.181Z,102219.56
2022-11-12T02:27:56.056Z,102221.78
2022-11-12T02:30:31.975Z,102224.28
2022-11-12T02:32:58.769Z,102217.13
2022-11-12T02:35:25.153Z,102219.94
2022-11-12T02:37:51.613Z,102213.28
2022-11-12T02:40:18.066Z,102216.59
2022-11-12T02:42:44.589Z,102221.56
2022-11-12T02:45:11.384Z,102225.63
2022-11-12T02:47:40.175Z,102217.13
2022-11-12T02:50:07.346Z,102217.00
2022-11-12T02:52:36.078Z,102210.56
2022-11-12T02:55:02.973Z,102215.25
2022-11-12T02:57:30.326Z,102206.00
2022-11-12T02:59:56.855Z,102209.84
2022-11-12T03:02:23.235Z,102209.69
2022-11-12T03:04:49.875Z,102208.09
2022-11-12T03:07:16.385Z,102208.13
2022-11-12T03:09:42.904Z,102210.09
2022-11-12T03:12:09.376Z,102208.09
2022-11-12T03:14:38.077Z,102209.69
2022-11-12T03:17:06.999Z,102208.88
2022-11-12T03:19:33.405Z,102209.69
2022-11-12T03:21:59.907Z,102213.28
2022-11-12T03:24:26.316Z,102215.50
2022-11-12T03:26:55.218Z,102215.00
2022-11-12T03:29:21.887Z,102210.09
2022-11-12T03:31:48.263Z,102219.94
2022-11-12T03:34:14.811Z,102219.31
2022-11-12T03:36:41.250Z,102224.97
2022-11-12T03:39:07.782Z,102216.75
2022-11-12T03:41:34.207Z,102220.19
2022-11-12T03:44:00.711Z,102214.03
2022-11-12T03:46:27.128Z,102212.28
2022-11-12T03:48:53.529Z,102218.94
2022-11-12T03:51:23.002Z,102209.69
2022-11-12T03:53:54.244Z,102215.97
2022-11-12T03:56:20.600Z,102209.22
2022-11-12T03:58:49.341Z,102207.84
2022-11-12T04:01:15.741Z,102208.97
2022-11-12T04:03:42.210Z,102204.16
2022-11-12T04:06:27.456Z,102208.97
2022-11-12T04:08:53.875Z,102215.13
2022-11-12T04:11:22.985Z,102212.28
2022-11-12T04:13:49.351Z,102209.81
2022-11-12T04:16:40.659Z,102210.69
2022-11-12T04:19:29.027Z,102206.75
2022-11-12T04:21:58.156Z,102205.41
2022-11-12T04:24:44.639Z,102210.56
2022-11-12T04:27:16.329Z,102205.66
2022-11-12T04:30:03.141Z,102198.63
2022-11-12T04:32:30.965Z,102195.03
2022-11-12T04:34:58.368Z,102196.63
2022-11-12T04:37:27.370Z,102196.50
2022-11-12T04:39:54.058Z,102200.66
2022-11-12T04:42:39.214Z,102201.19
2022-11-12T04:45:11.146Z,102194.00
2022-11-12T04:47:41.649Z,102198.56
2022-11-12T04:50:17.698Z,102208.66
2022-11-12T04:52:44.346Z,102207.34
2022-11-12T04:55:11.180Z,102203.63
2022-11-12T04:57:38.268Z,102203.88
2022-11-12T05:00:05.814Z,102216.69
2022-11-12T05:02:32.172Z,102213.13
2022-11-12T05:04:58.537Z,102211.34
2022-11-12T05:07:24.936Z,102211.88
2022-11-12T05:09:51.436Z,102205.56
2022-11-12T05:12:17.937Z,102207.94
2022-11-12T05:14:44.304Z,102215.66
2022-11-12T05:17:13.072Z,102215.81
2022-11-12T05:19:41.814Z,102211.25
2022-11-12T05:22:17.581Z,102215.63
2022-11-12T05:24:53.773Z,102223.75
2022-11-12T05:27:21.136Z,102227.00
2022-11-12T05:29:47.563Z,102225.50
2022-11-12T05:32:15.885Z,102228.06
2022-11-12T05:34:42.730Z,102217.09
2022-11-12T05:37:11.516Z,102228.69
2022-11-12T05:39:38.259Z,102228.66
2022-11-12T05:42:13.041Z,102240.97
2022-11-12T05:44:40.628Z,102235.09
2022-11-12T05:47:07.062Z,102235.09
2022-11-12T05:49:33.441Z,102237.28
2022-11-12T05:51:59.867Z,102240.97
2022-11-12T05:54:26.485Z,102240.22
2022-11-12T05:56:55.944Z,102237.50
2022-11-12T05:59:25.417Z,102243.56
2022-11-12T06:01:51.959Z,102235.56
2022-11-12T06:04:18.502Z,102239.25
2022-11-12T06:06:45.117Z,102241.03
2022-11-12T06:09:11.679Z,102240.47
2022-11-12T06:11:41.272Z,102248.59
2022-11-12T06:14:10.022Z,102240.91
2022-11-12T06:16:36.506Z,102256.28
2022-11-12T06:19:03.114Z,102246.56
2022-11-12T06:21:29.534Z,102250.47
2022-11-12T06:23:58.690Z,102247.56
2022-11-12T06:26:27.096Z,102249.41
2022-11-12T06:28:53.862Z,102259.25
2022-11-12T06:31:20.778Z,102260.88
2022-11-12T06:33:47.825Z,102246.81
2022-11-12T06:36:18.663Z,102251.97
2022-11-12T06:38:48.017Z,102253.81
2022-11-12T06:41:14.821Z,102255.78
2022-11-12T06:43:41.659Z,102256.94
2022-11-12T06:46:14.052Z,102251.88
2022-11-12T06:48:40.703Z,102259.38
2022-11-12T06:51:18.869Z,102255.44
2022-11-12T06:53:45.668Z,102257.63
2022-11-12T06:56:15.377Z,102256.03
2022-11-12T06:58:42.473Z,102251.09
2022-11-12T07:01:12.951Z,102259.44
2022-11-12T07:03:41.753Z,102258.78
2022-11-12T07:06:14.604Z,102249.69
2022-11-12T07:08:41.778Z,102255.94
2022-11-12T07:11:13.283Z,102253.25
2022-11-12T07:13:39.803Z,102252.50
2022-11-12T07:16:08.233Z,102243.75
2022-11-12T07:18:35.317Z,102248.19
2022-11-12T07:21:04.989Z,102249.03
2022-11-12T07:23:33.271Z,102248.31
2022-11-12T07:26:01.988Z,102246.31
2022-11-12T07:28:29.686Z,102257.06
2022-11-12T07:31:05.822Z,102250.66
2022-11-12T07:33:33.220Z,102243.41
2022-11-12T07:36:03.453Z,102246.47
2022-11-12T07:38:31.402Z,102242.78
2022-11-12T07:41:06.225Z,102252.28
2022-11-12T07:43:34.239Z,102242.66
2022-11-12T07:46:10.241Z,102237.84
2022-11-12T07:48:40.456Z,102239.50
2022-11-12T07:51:12.754Z,102249.56
2022-11-12T07:53:39.684Z,102248.59
2022-11-12T07:56:06.790Z,102245.13
2022-11-12T07:58:34.312Z,102244.38
2022-11-12T08:01:26.587Z,102251.25
2022-11-12T08:03:53.134Z,102238.00
2022-11-12T08:06:19.562Z,102241.09
2022-11-12T08:08:45.998Z,102245.28
2022-11-12T08:11:12.443Z,102247.59
2022-11-12T08:13:38.887Z,102243.13
2022-11-12T08:16:07.576Z,102245.06
2022-11-12T08:18:34.154Z,102244.66
2022-11-12T08:21:02.698Z,102252.03
2022-11-12T08:23:29.873Z,102250.59
2022-11-12T08:26:00.713Z,102246.59
2022-11-12T08:28:37.086Z,102258.94
2022-11-12T08:31:09.045Z,102254.44
2022-11-12T08:33:35.885Z,102256.72
2022-11-12T08:36:04.082Z,102257.75
2022-11-12T08:38:30.568Z,102256.94
2022-11-12T08:41:01.374Z,102258.78
2022-11-12T08:43:27.907Z,102264.91
2022-11-12T08:45:54.336Z,102264.09
2022-11-12T08:48:21.118Z,102266.22
2022-11-12T08:50:49.698Z,102265.00
2022-11-12T08:53:16.358Z,102265.75
2022-11-12T08:55:45.330Z,102260.34
2022-11-12T08:58:11.766Z,102258.44
2022-11-12T09:00:41.421Z,102266.59
2022-11-12T09:03:12.985Z,102271.06
2022-11-12T09:05:39.364Z,102261.59
2022-11-12T09:08:11.952Z,102263.06
2022-11-12T09:10:39.451Z,102252.31
2022-11-12T09:13:06.272Z,102260.38
2022-11-12T09:15:37.952Z,102262.47
2022-11-12T09:18:06.460Z,102265.22
2022-11-12T09:20:33.288Z,102267.13
2022-11-12T09:23:09.645Z,102258.31
2022-11-12T09:25:36.929Z,102254.66
2022-11-12T09:28:17.060Z,102258.16
2022-11-12T09:30:48.561Z,102257.97
2022-11-12T09:33:17.218Z,102276.53
2022-11-12T09:35:45.467Z,102269.97
2022-11-12T09:38:12.423Z,102273.03
2022-11-12T09:40:51.094Z,102259.63
2022-11-12T09:43:31.646Z,102271.69
2022-11-12T09:46:27.788Z,102275.50
2022-11-12T09:49:12.513Z,102268.47
2022-11-12T09:52:01.192Z,102275.78
2022-11-12T09:54:31.359Z,102271.63
2022-11-12T09:56:57.777Z,102259.63
2022-11-12T09:59:29.952Z,102263.56
2022-11-12T10:02:14.682Z,102261.59
2022-11-12T10:04:55.129Z,102256.13
2022-11-12T10:07:43.312Z,102250.06
2022-11-12T10:10:24.356Z,102250.94
2022-11-12T10:13:06.046Z,102243.94
2022-11-12T10:15:57.261Z,102242.19
2022-11-12T10:18:43.315Z,102238.53
2022-11-12T10:21:38.140Z,102242.22
2022-11-12T10:24:09.853Z,102240.72
2022-11-12T10:26:38.034Z,102243.31
2022-11-12T10:29:28.292Z,102244.06
2022-11-12T10:31:54.706Z,102238.41
2022-11-12T10:34:23.579Z,102231.78
2022-11-12T10:37:24.654Z,102237.22
2022-11-12T10:39:51.471Z,102239.91
2022-11-12T10:42:20.723Z,102231.16
2022-11-12T10:44:52.628Z,102235.84
2022-11-12T10:47:22.511Z,102238.81
2022-11-12T10:50:11.060Z,102234.09
2022-11-12T10:52:37.502Z,102236.47
2022-11-12T10:55:16.129Z,102233.88
2022-11-12T10:57:42.662Z,102233.25
2022-11-12T11:00:19.856Z,102231.03
2022-11-12T11:02:53.083Z,102230.78
2022-11-12T11:05:38.543Z,102231.66
2022-11-12T11:08:05.754Z,102232.91
2022-11-12T11:10:35.352Z,102228.09
2022-11-12T11:13:27.026Z,102229.19
2022-11-12T11:15:58.862Z,102224.03
2022-11-12T11:18:25.861Z,102216.00
2022-11-12T11:21:03.310Z,102220.97
2022-11-12T11:23:55.966Z,102217.88
2022-11-12T11:26:36.479Z,102207.13
2022-11-12T11:29:35.868Z,102213.91
2022-11-12T11:32:19.121Z,102209.34
2022-11-12T11:34:54.732Z,102210.59
2022-11-12T11:37:30.200Z,102207.03
2022-11-12T11:40:21.401Z,102204.69
2022-11-12T11:43:09.914Z,102201.44
2022-11-12T11:45:52.118Z,102204.19
2022-11-12T11:48:49.904Z,102206.16
2022-11-12T11:52:10.108Z,102202.44
2022-11-12T11:55:05.329Z,102190.59
2022-11-12T11:57:50.739Z,102196.88
2022-11-12T12:00:20.901Z,102188.50
2022-11-12T12:03:11.723Z,102191.44
2022-11-12T12:05:59.903Z,102190.09
2022-11-12T12:08:56.543Z,102184.91
2022-11-12T12:11:42.203Z,102192.69
2022-11-12T12:14:19.786Z,102194.69
2022-11-12T12:16:57.820Z,102186.41
2022-11-12T12:19:52.049Z,102179.75
2022-11-12T12:22:33.805Z,102167.00
2022-11-12T12:25:09.690Z,102172.31
2022-11-12T12:27:44.076Z,102175.91
2022-11-12T12:30:31.910Z,102154.63
2022-11-12T12:33:40.962Z,102152.72
2022-11-12T12:36:11.379Z,102147.16
2022-11-12T12:38:51.504Z,102151.72
2022-11-12T12:41:37.995Z,102151.88
2022-11-12T12:44:06.979Z,102144.44
2022-11-12T12:46:44.135Z,102135.69
2022-11-12T12:49:17.292Z,102143.34
2022-11-12T12:51:43.896Z,102134.72
2022-11-12T12:54:36.043Z,102133.09
2022-11-12T12:57:28.883Z,102139.50
2022-11-12T13:00:27.144Z,102127.41
2022-11-12T13:02:53.648Z,102126.38
2022-11-12T13:05:37.504Z,102133.09
2022-11-12T13:08:09.275Z,102128.75
2022-11-12T13:10:41.729Z,102128.16
2022-11-12T13:13:17.216Z,102120.63
2022-11-12T13:15:47.953Z,102124.19
2022-11-12T13:18:39.599Z,102123.22
2022-11-12T13:21:08.967Z,102115.69
2022-11-12T13:24:08.519Z,102113.84
2022-11-12T13:26:45.798Z,102108.53
2022-11-12T13:29:23.484Z,102120.91
2022-11-12T13:32:10.383Z,102114.84
2022-11-12T13:34:36.889Z,102108.03
2022-11-12T13:37:18.291Z,102105.94
2022-11-12T13:39:47.310Z,102116.56
2022-11-12T13:42:39.214Z,102110.13
2022-11-12T13:45:08.442Z,102106.06
2022-11-12T13:47:37.168Z,102108.03
2022-11-12T13:50:08.711Z,102107.66
2022-11-12T13:52:35.966Z,102105.72
2022-11-12T13:55:12.357Z,102110.34
2022-11-12T13:57:38.753Z,102107.19
2022-11-12T14:00:17.117Z,102100.16
2022-11-12T14:02:52.650Z,102095.34
2022-11-12T14:05:28.030Z,102089.19
2022-11-12T14:08:13.057Z,102087.59
2022-11-12T14:11:06.323Z,102084.50
2022-11-12T14:13:43.514Z,102086.34
2022-11-12T14:16:18.880Z,102084.88
2022-11-12T14:19:07.296Z,102084.03
2022-11-12T14:21:34.374Z,102086.84
2022-11-12T14:24:02.932Z,102086.13
2022-11-12T14:26:35.203Z,102083.53
2022-11-12T14:29:01.666Z,102076.50
2022-11-12T14:31:28.098Z,102076.38
2022-11-12T14:33:54.614Z,102065.50
2022-11-12T14:36:27.634Z,102067.75
2022-11-12T14:38:57.590Z,102063.31
2022-11-12T14:41:38.794Z,102067.63
2022-11-12T14:44:13.726Z,102071.47
2022-11-12T14:46:50.184Z,102057.41
2022-11-12T14:49:36.538Z,102060.88
2022-11-12T14:52:22.561Z,102055.31
2022-11-12T14:54:56.591Z,102063.09
2022-11-12T14:57:28.551Z,102062.34
2022-11-12T14:59:55.922Z,102057.31
2022-11-12T15:02:53.414Z,102051.72
2022-11-12T15:05:23.667Z,102057.03
2022-11-12T15:07:58.187Z,102052.75
2022-11-12T15:10:36.137Z,102053.47
2022-11-12T15:13:08.893Z,102060.13
2022-11-12T15:15:40.446Z,102054.44
2022-11-12T15:18:16.476Z,102045.59
2022-11-12T15:20:43.076Z,102045.84
2022-11-12T15:23:19.407Z,102044.09
2022-11-12T15:25:46.039Z,102037.56
2022-11-12T15:28:23.823Z,102039.41
2022-11-12T15:31:05.255Z,102047.81
2022-11-12T15:33:34.155Z,102040.03
2022-11-12T15:36:01.638Z,102038.59
2022-11-12T15:38:36.335Z,102039.19
2022-11-12T15:41:05.935Z,102042.91
2022-11-12T15:43:35.596Z,102040.28
2022-11-12T15:46:02.770Z,102051.03
2022-11-12T15:48:29.148Z,102038.34
2022-11-12T15:50:55.701Z,102030.22
2022-11-12T15:53:22.180Z,102020.22
2022-11-12T15:55:51.862Z,102017.53
2022-11-12T15:58:32.023Z,102019.97
2022-11-12T16:00:58.802Z,102023.66
2022-11-12T16:03:25.804Z,102020.47
2022-11-12T16:05:52.545Z,102010.72
2022-11-12T16:08:19.284Z,102007.53
2022-11-12T16:10:47.008Z,102003.22
2022-11-12T16:13:26.571Z,101998.66
2022-11-12T16:15:53.782Z,101998.91
2022-11-12T16:18:20.424Z,101994.59
2022-11-12T16:20:48.571Z,102001.75
2022-11-12T16:23:15.056Z,101997.44
2022-11-12T16:25:43.370Z,102000.41
2022-11-12T16:28:14.002Z,101994.84
2022-11-12T16:30:40.784Z,102006.06
2022-11-12T16:33:13.417Z,102002.13
2022-11-12T16:35:40.438Z,101998.19
2022-11-12T16:38:15.317Z,102000.78
2022-11-12T16:40:42.830Z,101994.84
2022-11-12T16:43:09.301Z,101995.97
2022-11-12T16:45:39.422Z,102001.03
2022-11-12T16:48:20.537Z,101998.78
2022-11-12T16:50:47.627Z,101995.63
2022-11-12T16:53:14.155Z,101993.13
2022-11-12T16:55:41.012Z,101996.59
2022-11-12T16:58:07.535Z,101992.03
2022-11-12T17:00:35.638Z,102001.75
2022-11-12T17:03:02.083Z,102000.41
2022-11-12T17:05:28.446Z,101990.56
2022-11-12T17:07:59.443Z,101989.94
2022-11-12T17:10:25.996Z,101992.16
2022-11-12T17:12:55.424Z,101980.59
2022-11-12T17:15:21.796Z,101976.88
2022-11-12T17:17:48.216Z,101980.44
2022-11-12T17:20:17.140Z,101982.69
2022-11-12T17:22:43.553Z,101975.28
2022-11-12T17:25:10.119Z,101970.84
2022-11-12T17:27:36.646Z,101970.97
2022-11-12T17:30:04.258Z,101983.91
2022-11-12T17:32:30.871Z,101976.88
2022-11-12T17:34:57.265Z,101970.34
2022-11-12T17:37:23.726Z,101976.13
2022-11-12T17:39:50.286Z,101964.19
2022-11-12T17:42:16.640Z,101963.56
2022-11-12T17:44:43.052Z,101967.75
2022-11-12T17:47:09.667Z,101975.88
2022-11-12T17:49:36.154Z,101966.78
2022-11-12T17:52:02.564Z,101964.19
2022-11-12T17:54:29.002Z,101957.91
2022-11-12T17:56:55.477Z,101966.28
2022-11-12T17:59:22.021Z,101963.81
2022-11-12T18:01:48.524Z,101958.91
2022-11-12T18:04:17.494Z,101954.97
2022-11-12T18:06:44.009Z,101947.81
2022-11-12T18:09:17.033Z,101947.19
2022-11-12T18:11:49.123Z,101946.94
2022-11-12T18:14:15.793Z,101953.50
2022-11-12T18:16:42.399Z,101951.88
2022-11-12T18:19:12.499Z,101952.00
2022-11-12T18:21:40.337Z,101955.09
2022-11-12T18:24:11.912Z,101952.25
2022-11-12T18:26:39.039Z,101958.03
2022-11-12T18:29:07.333Z,101948.19
2022-11-12T18:31:33.821Z,101950.16
2022-11-12T18:34:02.707Z,101961.09
2022-11-12T18:36:29.209Z,101968.97
2022-11-12T18:38:56.048Z,101968.72
2022-11-12T18:41:26.976Z,101960.84
2022-11-12T18:43:54.426Z,101952.25
2022-11-12T18:46:21.193Z,101963.09
2022-11-12T18:48:47.720Z,101959.53
2022-11-12T18:51:16.556Z,101962.59
2022-11-12T18:53:46.081Z,101956.81
2022-11-12T18:56:18.566Z,101955.78
2022-11-12T18:58:45.100Z,101956.41
2022-11-12T19:01:21.049Z,101954.44
2022-11-12T19:03:48.525Z,101947.06
2022-11-12T19:06:16.569Z,101938.06
2022-11-12T19:08:43.046Z,101945.34
2022-11-12T19:11:18.634Z,101944.34
2022-11-12T19:13:53.023Z,101938.94
2022-11-12T19:16:22.556Z,101936.72
2022-11-12T19:18:50.548Z,101931.06
2022-11-12T19:21:23.115Z,101937.34
2022-11-12T19:23:54.090Z,101932.78
2022-11-12T19:26:22.407Z,101927.00
2022-11-12T19:28:49.362Z,101928.25
2022-11-12T19:31:23.740Z,101925.38
2022-11-12T19:33:50.747Z,101917.78
2022-11-12T19:36:20.714Z,101921.72
2022-11-12T19:38:47.215Z,101909.28
2022-11-12T19:41:19.687Z,101917.03
2022-11-12T19:43:47.021Z,101909.38
2022-11-12T19:46:14.773Z,101903.84
2022-11-12T19:48:41.587Z,101907.66
2022-11-12T19:51:11.912Z,101903.97
2022-11-12T19:53:44.365Z,101909.13
2022-11-12T19:56:16.845Z,101909.03
2022-11-12T19:58:47.233Z,101904.56
2022-11-12T20:01:18.367Z,101903.59
2022-11-12T20:03:45.498Z,101898.69
2022-11-12T20:06:17.768Z,101902.47
2022-11-12T20:08:44.241Z,101893.38
2022-11-12T20:11:11.624Z,101889.53
2022-11-12T20:13:38.128Z,101894.34
2022-11-12T20:16:19.614Z,101888.94
2022-11-12T20:18:55.712Z,101884.25
2022-11-12T20:21:23.802Z,101890.28
2022-11-12T20:23:50.286Z,101892.03
2022-11-12T20:26:17.216Z,101886.59
2022-11-12T20:28:44.521Z,101894.59
2022-11-12T20:31:20.531Z,101878.69
2022-11-12T20:33:50.230Z,101884.00
2022-11-12T20:36:20.261Z,101876.38
2022-11-12T20:38:47.687Z,101871.19
2022-11-12T20:41:24.991Z,101879.19
2022-11-12T20:44:00.290Z,101877.09
2022-11-12T20:46:27.205Z,101881.03
2022-11-12T20:48:54.782Z,101873.16
2022-11-12T20:51:26.318Z,101882.16
2022-11-12T20:54:00.233Z,101873.78
2022-11-12T20:56:29.182Z,101867.50
2022-11-12T20:58:56.446Z,101871.66
2022-11-12T21:01:24.789Z,101872.03
2022-11-12T21:03:52.146Z,101869.34
2022-11-12T21:06:21.783Z,101866.50
2022-11-12T21:08:48.703Z,101864.28
2022-11-12T21:11:17.880Z,101851.13
2022-11-12T21:13:44.502Z,101853.44
2022-11-12T21:16:12.654Z,101850.97
2022-11-12T21:18:39.637Z,101845.53
2022-11-12T21:21:14.607Z,101844.47
2022-11-12T21:23:43.632Z,101848.03
2022-11-12T21:26:13.430Z,101850.59
2022-11-12T21:28:44.889Z,101844.91
2022-11-12T21:31:17.365Z,101841.22
2022-11-12T21:33:44.265Z,101844.06
2022-11-12T21:36:16.040Z,101852.94
2022-11-12T21:38:42.969Z,101849.97
2022-11-12T21:41:13.499Z,101847.00
2022-11-12T21:43:43.818Z,101842.69
2022-11-12T21:46:26.913Z,101843.69
2022-11-12T21:48:55.532Z,101840.84
2022-11-12T21:51:26.975Z,101843.41
2022-11-12T21:54:02.037Z,101838.00
2022-11-12T21:56:29.033Z,101846.00
2022-11-12T21:59:00.538Z,101847.00
2022-11-12T22:01:32.623Z,101826.78
2022-11-12T22:04:02.360Z,101840.06
2022-11-12T22:06:29.749Z,101835.50
2022-11-12T22:08:57.477Z,101837.34
2022-11-12T22:11:25.349Z,101833.81
2022-11-12T22:13:51.930Z,101826.50
2022-11-12T22:16:29.291Z,101825.53
2022-11-12T22:18:57.730Z,101827.25
2022-11-12T22:21:38.333Z,101823.78
2022-11-12T22:24:06.869Z,101807.69
2022-11-12T22:26:33.434Z,101805.09
2022-11-12T22:28:59.881Z,101803.50
2022-11-12T22:31:28.582Z,101809.63
2022-11-12T22:33:59.052Z,101804.22
2022-11-12T22:36:28.799Z,101806.81
2022-11-12T22:38:56.094Z,101805.84
2022-11-12T22:41:25.309Z,101802.25
2022-11-12T22:43:53.911Z,101796.56
2022-11-12T22:46:28.494Z,101791.41
2022-11-12T22:48:57.679Z,101782.28
2022-11-12T22:51:32.178Z,101787.72
2022-11-12T22:54:00.926Z,101787.56
2022-11-12T22:56:28.199Z,101787.72
2022-11-12T22:58:55.497Z,101776.72
2022-11-12T23:01:25.801Z,101776.88
2022-11-12T23:03:56.119Z,101772.75
2022-11-12T23:06:25.736Z,101766.34
2022-11-12T23:08:56.535Z,101774.00
2022-11-12T23:11:25.907Z,101762.31
2022-11-12T23:13:56.193Z,101760.47
2022-11-12T23:16:29.123Z,101758.63
2022-11-12T23:18:56.063Z,101762.91
2022-11-12T23:21:25.760Z,101748.63
2022-11-12T23:23:52.885Z,101746.47
2022-11-12T23:26:24.945Z,101743.88
2022-11-12T23:28:51.834Z,101735.63
2022-11-12T23:31:19.641Z,101745.44
2022-11-12T23:33:51.102Z,101741.75
2022-11-12T23:36:18.398Z,101738.78
2022-11-12T23:38:45.023Z,101734.88
2022-11-12T23:41:17.601Z,101735.34
2022-11-12T23:43:44.902Z,101729.06
2022-11-12T23:46:12.694Z,101723.91
2022-11-12T23:48:39.616Z,101713.94
2022-11-12T23:51:11.866Z,101715.03
2022-11-12T23:53:39.170Z,101712.31
2022-11-12T23:56:07.553Z,101706.31
2022-11-12T23:58:34.081Z,101708.03
